Time;durP1;ratioP1;P1;durP2;ratioP2;P2;SDS_P1;SDS_P2;PMS_P1;PMS_P2;Temp;Humidity;BMP_temperature;BMP_pressure;BME280_temperature;BME280_humidity;BME280_pressure;Samples;Min_cycle;Max_cycle;Signal;HPM_P1;HPM_P2
2021/09/28 00:01:00;;;;;;;2.92;1.20;;;14.00;98.00;;;;;;5062728;28;20395;-70
2021/09/28 00:03:25;;;;;;;2.67;1.00;;;13.80;98.00;;;;;;5072382;28;20037;-70
2021/09/28 00:05:51;;;;;;;3.45;1.10;;;13.70;98.00;;;;;;5066013;28;20022;-69
2021/09/28 00:08:17;;;;;;;1.98;0.95;;;13.60;98.00;;;;;;5063762;28;20043;-70
2021/09/28 00:10:43;;;;;;;2.78;1.02;;;13.50;98.00;;;;;;5073914;28;20035;-69
2021/09/28 00:13:08;;;;;;;2.38;1.17;;;13.50;98.00;;;;;;5073401;28;20052;-68
2021/09/28 00:15:34;;;;;;;1.73;0.90;;;13.50;98.00;;;;;;5073475;28;20058;-68
2021/09/28 00:18:01;;;;;;;1.67;0.90;;;13.40;98.00;;;;;;5076498;28;20421;-68
2021/09/28 00:20:29;;;;;;;1.63;0.70;;;13.40;98.00;;;;;;5073992;28;20040;-69
2021/09/28 00:22:55;;;;;;;2.70;0.80;;;13.20;98.00;;;;;;5062338;28;20151;-69
2021/09/28 00:25:21;;;;;;;3.80;0.90;;;13.00;98.00;;;;;;5059723;28;20045;-70
2021/09/28 00:27:48;;;;;;;1.55;0.90;;;12.80;98.00;;;;;;5069560;28;20409;-70
2021/09/28 00:30:13;;;;;;;1.40;0.80;;;12.70;98.00;;;;;;5056349;28;20063;-70
2021/09/28 00:32:39;;;;;;;1.58;0.90;;;12.60;98.00;;;;;;5062180;28;20484;-69
2021/09/28 00:35:05;;;;;;;1.88;0.85;;;12.40;98.00;;;;;;5055895;28;20484;-70
2021/09/28 00:37:31;;;;;;;2.53;0.90;;;12.30;98.00;;;;;;5059884;28;20104;-70
2021/09/28 00:39:56;;;;;;;2.17;0.90;;;12.20;97.90;;;;;;5057978;28;20029;-71
2021/09/28 00:42:22;;;;;;;2.15;1.10;;;12.00;97.50;;;;;;5073963;28;20357;-71
2021/09/28 00:44:48;;;;;;;2.20;1.00;;;12.00;97.00;;;;;;5074278;28;20035;-71
2021/09/28 00:47:15;;;;;;;1.88;0.90;;;11.90;96.80;;;;;;5071209;28;20090;-71
2021/09/28 00:49:42;;;;;;;2.63;1.20;;;11.80;96.40;;;;;;5058140;28;20078;-71
2021/09/28 00:52:10;;;;;;;3.17;1.25;;;11.70;96.20;;;;;;5065652;28;20341;-71
2021/09/28 00:54:37;;;;;;;3.92;1.20;;;11.70;95.60;;;;;;5057782;28;20314;-71
2021/09/28 00:57:05;;;;;;;2.58;1.20;;;11.70;95.10;;;;;;5058262;28;20020;-71
2021/09/28 00:59:34;;;;;;;2.50;1.02;;;11.70;95.30;;;;;;5066197;28;20021;-71
2021/09/28 01:02:01;;;;;;;3.05;1.30;;;11.60;95.10;;;;;;5069087;28;20024;-71
2021/09/28 01:04:27;;;;;;;3.83;1.63;;;11.60;94.70;;;;;;5075195;28;20020;-72
2021/09/28 01:06:58;;;;;;;2.47;1.00;;;11.50;94.40;;;;;;5068239;28;20417;-71
2021/09/28 01:09:24;;;;;;;2.83;1.20;;;11.50;94.10;;;;;;5072945;28;20107;-72
2021/09/28 01:11:50;;;;;;;2.97;1.40;;;11.50;93.80;;;;;;5071623;28;20099;-72
2021/09/28 01:14:16;;;;;;;2.25;1.17;;;11.50;93.90;;;;;;5074226;28;20319;-73
2021/09/28 01:16:41;;;;;;;2.03;1.08;;;11.40;93.70;;;;;;5074346;28;20051;-72
2021/09/28 01:19:07;;;;;;;3.70;1.30;;;11.40;93.20;;;;;;5058667;28;20032;-73
2021/09/28 01:21:33;;;;;;;2.55;1.33;;;11.40;92.80;;;;;;5055482;28;20020;-73
2021/09/28 01:23:59;;;;;;;4.22;1.30;;;11.40;92.70;;;;;;5064311;28;20029;-73
2021/09/28 01:26:27;;;;;;;2.97;1.30;;;11.40;92.20;;;;;;5061419;28;20423;-73
2021/09/28 01:28:55;;;;;;;3.08;1.45;;;11.40;92.30;;;;;;5064330;28;20020;-73
2021/09/28 01:31:23;;;;;;;2.53;1.30;;;11.40;92.00;;;;;;5066697;28;20116;-73
2021/09/28 01:33:49;;;;;;;3.80;1.48;;;11.40;91.30;;;;;;5055409;28;20091;-73
2021/09/28 01:36:15;;;;;;;4.25;1.27;;;11.40;91.80;;;;;;5072262;28;20286;-72
2021/09/28 01:38:41;;;;;;;4.38;1.20;;;11.40;91.70;;;;;;5072789;28;20074;-71
2021/09/28 01:41:06;;;;;;;4.43;1.20;;;11.30;91.80;;;;;;5072916;28;20444;-71
2021/09/28 01:43:32;;;;;;;1.90;0.88;;;11.30;92.40;;;;;;5074103;28;20032;-71
2021/09/28 01:46:00;;;;;;;2.45;1.10;;;11.20;92.20;;;;;;5064905;28;20025;-72
2021/09/28 01:48:33;;;;;;;2.60;1.10;;;11.20;92.20;;;;;;5062196;28;20321;-71
2021/09/28 01:50:59;;;;;;;2.35;1.17;;;11.30;92.30;;;;;;5066933;28;20108;-71
2021/09/28 01:53:25;;;;;;;4.30;1.17;;;11.20;92.40;;;;;;5057136;28;20107;-72
2021/09/28 01:55:50;;;;;;;2.67;1.10;;;11.20;92.30;;;;;;5067345;28;20020;-71
2021/09/28 01:58:19;;;;;;;2.65;1.05;;;11.30;92.00;;;;;;5072948;28;20024;-71
2021/09/28 02:00:45;;;;;;;2.45;1.27;;;11.20;92.40;;;;;;5072622;28;20024;-71
2021/09/28 02:03:11;;;;;;;4.85;1.40;;;11.20;92.20;;;;;;5057546;28;20017;-72
2021/09/28 02:05:39;;;;;;;2.72;1.33;;;11.30;92.20;;;;;;5058027;28;20057;-71
2021/09/28 02:08:05;;;;;;;4.10;1.20;;;11.20;92.00;;;;;;5071613;28;20329;-72
2021/09/28 02:10:30;;;;;;;2.08;1.15;;;11.30;91.60;;;;;;5073941;28;20032;-71
2021/09/28 02:12:56;;;;;;;2.67;1.40;;;11.20;92.20;;;;;;5073230;28;20029;-71
2021/09/28 02:15:22;;;;;;;4.05;1.45;;;11.20;92.00;;;;;;5073072;28;20025;-71
2021/09/28 02:17:48;;;;;;;3.15;1.40;;;11.20;91.80;;;;;;5067255;28;20440;-71
2021/09/28 02:20:13;;;;;;;6.00;1.55;;;11.30;92.00;;;;;;5054670;28;20032;-71
2021/09/28 02:22:39;;;;;;;5.80;1.30;;;11.30;91.90;;;;;;5061158;28;20421;-71
2021/09/28 02:25:07;;;;;;;4.35;1.30;;;11.30;91.80;;;;;;5067561;28;20375;-71
2021/09/28 02:27:33;;;;;;;4.22;1.20;;;11.30;92.00;;;;;;5070434;28;20425;-71
2021/09/28 02:29:59;;;;;;;5.47;1.63;;;11.20;91.90;;;;;;5072266;28;20047;-72
2021/09/28 02:32:24;;;;;;;3.33;1.30;;;11.20;91.90;;;;;;5075790;28;20036;-71
2021/09/28 02:34:50;;;;;;;2.75;1.33;;;11.20;91.80;;;;;;5076538;28;20027;-71
2021/09/28 02:37:16;;;;;;;4.32;1.60;;;11.20;92.00;;;;;;5062151;28;20036;-72
2021/09/28 02:39:42;;;;;;;3.50;1.65;;;11.20;91.70;;;;;;5073136;28;20020;-71
2021/09/28 02:42:10;;;;;;;4.88;1.80;;;11.20;91.60;;;;;;5061019;28;20036;-71
2021/09/28 02:44:36;;;;;;;3.88;1.60;;;11.20;91.70;;;;;;5077117;28;20321;-70
2021/09/28 02:47:02;;;;;;;4.50;1.70;;;11.20;91.70;;;;;;5061047;28;20029;-71
2021/09/28 02:49:28;;;;;;;5.15;1.85;;;11.30;91.60;;;;;;5062537;28;20032;-71
2021/09/28 02:51:54;;;;;;;5.88;2.03;;;11.20;91.80;;;;;;5059083;28;20397;-71
2021/09/28 02:54:19;;;;;;;4.22;1.73;;;11.20;91.90;;;;;;5064144;28;20318;-71
2021/09/28 02:56:45;;;;;;;4.07;2.00;;;11.20;91.70;;;;;;5064520;28;20020;-71
2021/09/28 02:59:11;;;;;;;8.23;1.65;;;11.20;91.80;;;;;;5069302;28;20359;-70
2021/09/28 03:01:36;;;;;;;3.05;1.80;;;11.10;91.70;;;;;;5070879;28;20039;-71
2021/09/28 03:04:02;;;;;;;3.88;1.90;;;11.10;91.70;;;;;;5059782;28;20032;-71
2021/09/28 03:06:27;;;;;;;4.10;2.00;;;11.10;91.70;;;;;;5075516;28;20415;-71
2021/09/28 03:08:53;;;;;;;5.53;2.00;;;11.10;92.10;;;;;;5072267;28;20460;-71
2021/09/28 03:11:19;;;;;;;6.68;2.33;;;11.10;92.40;;;;;;5076726;28;20047;-71
2021/09/28 03:13:44;;;;;;;4.47;1.88;;;11.10;92.50;;;;;;5067855;28;20032;-71
2021/09/28 03:16:10;;;;;;;3.45;1.63;;;11.10;92.40;;;;;;5065688;28;20028;-71
2021/09/28 03:18:35;;;;;;;4.93;2.10;;;11.10;92.40;;;;;;5076867;28;20051;-71
2021/09/28 03:21:01;;;;;;;3.92;1.77;;;11.10;92.40;;;;;;5063787;28;20035;-71
2021/09/28 03:23:29;;;;;;;6.55;2.45;;;11.10;92.60;;;;;;5073911;28;20103;-70
2021/09/28 03:25:55;;;;;;;5.55;2.40;;;11.10;92.60;;;;;;5075166;28;20370;-70
2021/09/28 03:28:21;;;;;;;4.20;1.60;;;11.00;92.60;;;;;;5075912;28;20024;-70
2021/09/28 03:30:46;;;;;;;5.50;1.85;;;11.10;92.20;;;;;;5070778;28;20028;-71
2021/09/28 03:33:12;;;;;;;5.10;1.80;;;11.00;92.80;;;;;;5075743;28;20032;-70
2021/09/28 03:35:38;;;;;;;10.90;2.60;;;11.00;92.80;;;;;;5073686;28;20028;-71
2021/09/28 03:38:03;;;;;;;4.78;1.75;;;11.10;92.40;;;;;;5073022;28;20029;-71
2021/09/28 03:40:30;;;;;;;4.05;1.67;;;11.10;92.40;;;;;;5067420;28;20039;-70
2021/09/28 03:42:57;;;;;;;3.20;1.48;;;11.10;92.30;;;;;;5063523;28;20028;-71
2021/09/28 03:45:25;;;;;;;5.18;1.88;;;11.10;92.20;;;;;;5075462;28;20369;-71
2021/09/28 03:47:51;;;;;;;5.70;2.00;;;11.10;92.80;;;;;;5057002;28;20025;-71
2021/09/28 03:50:20;;;;;;;5.15;2.10;;;11.10;92.40;;;;;;5068191;28;20032;-71
2021/09/28 03:52:45;;;;;;;5.60;1.73;;;11.10;92.40;;;;;;5065917;28;20051;-71
2021/09/28 03:55:13;;;;;;;3.42;1.80;;;11.10;92.50;;;;;;5064733;28;20309;-71
2021/09/28 03:57:39;;;;;;;4.40;1.73;;;11.10;92.50;;;;;;5067900;28;20028;-71
2021/09/28 04:00:05;;;;;;;10.25;2.40;;;11.00;92.60;;;;;;5074232;28;20033;-71
2021/09/28 04:02:31;;;;;;;3.60;1.65;;;11.00;92.80;;;;;;5064365;28;20028;-71
2021/09/28 04:04:57;;;;;;;3.20;1.67;;;11.00;92.50;;;;;;5074102;28;20036;-69
2021/09/28 04:07:22;;;;;;;4.47;1.95;;;11.00;92.50;;;;;;5075723;28;20029;-70
2021/09/28 04:09:48;;;;;;;3.13;1.35;;;10.90;92.70;;;;;;5066577;28;20029;-71
2021/09/28 04:12:16;;;;;;;4.32;1.90;;;10.90;92.90;;;;;;5072084;28;20371;-70
2021/09/28 04:14:45;;;;;;;3.88;1.88;;;10.90;92.70;;;;;;5074094;28;20417;-70
2021/09/28 04:17:10;;;;;;;4.43;1.80;;;10.90;92.80;;;;;;5068342;28;20045;-72
2021/09/28 04:19:36;;;;;;;4.97;1.63;;;10.90;92.70;;;;;;5064533;28;20034;-71
2021/09/28 04:22:02;;;;;;;3.03;1.52;;;10.90;92.60;;;;;;5069607;28;20413;-71
2021/09/28 04:24:29;;;;;;;4.90;1.50;;;10.90;92.70;;;;;;5056329;28;20025;-71
2021/09/28 04:26:54;;;;;;;4.18;1.63;;;10.90;92.90;;;;;;5069670;28;20317;-71
2021/09/28 04:29:20;;;;;;;3.85;1.70;;;10.90;92.90;;;;;;5075655;28;20054;-71
2021/09/28 04:31:46;;;;;;;3.22;1.60;;;10.90;93.00;;;;;;5072602;28;20108;-71
2021/09/28 04:34:11;;;;;;;4.00;1.70;;;10.80;93.20;;;;;;5066057;28;20028;-71
2021/09/28 04:36:37;;;;;;;6.13;1.60;;;10.80;93.00;;;;;;5066613;28;20028;-71
2021/09/28 04:39:03;;;;;;;4.95;2.08;;;10.80;93.10;;;;;;5055935;28;20487;-71
2021/09/28 04:41:28;;;;;;;3.35;1.60;;;10.80;92.70;;;;;;5063321;28;20052;-71
2021/09/28 04:43:55;;;;;;;3.03;1.50;;;10.80;92.90;;;;;;5069527;28;20077;-69
2021/09/28 04:46:21;;;;;;;6.88;1.70;;;10.80;93.20;;;;;;5079791;28;20025;-69
2021/09/28 04:48:48;;;;;;;2.40;1.30;;;10.70;93.50;;;;;;5069417;28;20020;-69
2021/09/28 04:51:14;;;;;;;3.92;1.75;;;10.70;93.40;;;;;;5066928;28;20085;-69
2021/09/28 04:53:41;;;;;;;5.60;1.50;;;10.70;92.70;;;;;;5063134;28;20112;-70
2021/09/28 04:56:08;;;;;;;3.70;1.70;;;10.70;93.00;;;;;;5072296;28;20339;-70
2021/09/28 04:58:34;;;;;;;6.50;1.92;;;10.60;92.90;;;;;;5069655;28;20035;-70
2021/09/28 05:01:00;;;;;;;4.25;1.80;;;10.70;92.10;;;;;;5073754;28;20027;-70
2021/09/28 05:03:26;;;;;;;3.75;1.88;;;10.70;92.90;;;;;;5068820;28;20512;-70
2021/09/28 05:05:52;;;;;;;5.43;2.45;;;10.70;92.90;;;;;;5072902;28;20021;-70
2021/09/28 05:08:18;;;;;;;3.72;1.67;;;10.70;92.70;;;;;;5056704;28;20027;-70
2021/09/28 05:10:44;;;;;;;5.03;1.95;;;10.60;93.00;;;;;;5059016;28;20081;-70
2021/09/28 05:13:10;;;;;;;5.40;2.10;;;10.60;92.60;;;;;;5064822;28;20074;-70
2021/09/28 05:15:36;;;;;;;5.97;2.10;;;10.60;92.60;;;;;;5062031;28;20028;-70
2021/09/28 05:18:02;;;;;;;4.22;1.83;;;10.50;93.40;;;;;;5071466;28;20041;-70
2021/09/28 05:20:28;;;;;;;3.85;1.77;;;10.50;93.40;;;;;;5065478;28;20350;-70
2021/09/28 05:22:54;;;;;;;3.15;1.67;;;10.30;93.60;;;;;;5065953;28;20028;-70
2021/09/28 05:25:20;;;;;;;4.30;1.70;;;10.30;93.20;;;;;;5075612;28;20174;-70
2021/09/28 05:27:46;;;;;;;4.97;1.65;;;10.30;93.90;;;;;;5074357;28;20024;-70
2021/09/28 05:30:12;;;;;;;3.17;1.70;;;10.20;93.90;;;;;;5074010;28;20033;-69
2021/09/28 05:32:38;;;;;;;5.72;1.95;;;10.30;93.50;;;;;;5075626;28;20040;-69
2021/09/28 05:35:04;;;;;;;3.67;1.60;;;10.30;93.90;;;;;;5060818;28;20040;-69
2021/09/28 05:37:30;;;;;;;4.43;1.83;;;10.30;93.90;;;;;;5055346;28;20017;-69
2021/09/28 05:39:56;;;;;;;4.13;2.00;;;10.30;93.70;;;;;;5054868;28;20025;-69
2021/09/28 05:42:22;;;;;;;6.47;2.10;;;10.30;93.90;;;;;;5054302;28;20106;-69
2021/09/28 05:44:48;;;;;;;4.38;2.10;;;10.40;94.20;;;;;;5054276;28;20087;-69
2021/09/28 05:47:14;;;;;;;5.55;2.22;;;10.30;94.90;;;;;;5054071;28;20024;-69
2021/09/28 05:49:40;;;;;;;5.60;2.00;;;10.20;94.90;;;;;;5054291;28;20032;-69
2021/09/28 05:52:11;;;;;;;4.25;2.15;;;10.20;95.00;;;;;;5054952;28;20029;-69
2021/09/28 05:54:47;;;;;;;7.57;3.10;;;10.20;95.30;;;;;;5055025;28;20025;-69
2021/09/28 05:57:15;;;;;;;5.45;2.70;;;10.10;95.40;;;;;;5063580;28;20021;-70
2021/09/28 05:59:44;;;;;;;6.32;2.53;;;10.10;95.30;;;;;;5075296;28;20085;-69
2021/09/28 06:02:11;;;;;;;6.13;2.70;;;10.10;95.00;;;;;;5077125;28;20016;-70
2021/09/28 06:04:37;;;;;;;4.55;2.28;;;10.10;95.10;;;;;;5077519;28;20063;-69
2021/09/28 06:07:04;;;;;;;5.22;2.30;;;10.10;94.70;;;;;;5079035;28;20082;-69
2021/09/28 06:09:35;;;;;;;8.70;3.33;;;10.10;94.90;;;;;;5078155;28;20099;-69
2021/09/28 06:12:03;;;;;;;10.82;3.05;;;10.10;95.20;;;;;;5072225;28;20421;-69
2021/09/28 06:14:31;;;;;;;10.77;2.88;;;10.00;94.80;;;;;;5068488;28;20028;-69
2021/09/28 06:16:58;;;;;;;7.85;2.58;;;10.00;94.80;;;;;;5069773;28;20060;-69
2021/09/28 06:19:25;;;;;;;7.05;2.63;;;10.10;94.00;;;;;;5066403;28;20027;-69
2021/09/28 06:21:51;;;;;;;9.63;3.10;;;10.10;94.20;;;;;;5075655;28;20036;-69
2021/09/28 06:24:18;;;;;;;7.18;3.05;;;10.20;94.30;;;;;;5077774;28;20040;-69
2021/09/28 06:26:45;;;;;;;6.15;2.47;;;10.30;94.30;;;;;;5075685;28;20151;-69
2021/09/28 06:29:11;;;;;;;6.70;2.80;;;10.30;94.20;;;;;;5076674;28;20028;-69
2021/09/28 06:31:37;;;;;;;5.90;2.50;;;10.40;94.70;;;;;;5076450;28;20059;-69
2021/09/28 06:34:04;;;;;;;6.68;2.53;;;10.30;94.90;;;;;;5078206;28;20028;-69
2021/09/28 06:36:42;;;;;;;5.32;2.60;;;10.40;94.50;;;;;;5077547;28;20806;-69
2021/09/28 06:39:08;;;;;;;7.50;2.75;;;10.40;94.90;;;;;;5074636;28;20136;-70
2021/09/28 06:41:41;;;;;;;6.80;2.90;;;10.40;95.30;;;;;;5077171;28;20123;-70
2021/09/28 06:44:07;;;;;;;8.32;3.15;;;10.40;95.20;;;;;;5077876;28;20031;-70
2021/09/28 06:46:36;;;;;;;6.40;2.65;;;10.40;95.30;;;;;;5076981;28;20119;-70
2021/09/28 06:49:02;;;;;;;5.03;2.67;;;10.40;95.30;;;;;;5078209;28;20095;-70
2021/09/28 06:51:31;;;;;;;10.50;3.10;;;10.40;95.10;;;;;;5078070;28;20025;-70
2021/09/28 06:53:56;;;;;;;6.47;2.65;;;10.50;95.00;;;;;;5078000;28;20025;-70
2021/09/28 06:56:22;;;;;;;4.72;2.63;;;10.60;94.10;;;;;;5076844;28;20048;-70
2021/09/28 06:58:48;;;;;;;5.47;2.50;;;10.80;93.50;;;;;;5067554;28;20066;-70
2021/09/28 07:01:14;;;;;;;5.80;2.10;;;11.10;93.60;;;;;;5058184;28;20425;-69
2021/09/28 07:03:40;;;;;;;5.60;2.40;;;11.20;93.80;;;;;;5059463;28;20096;-70
2021/09/28 07:06:09;;;;;;;5.50;1.98;;;11.40;95.20;;;;;;5077392;28;20055;-70
2021/09/28 07:08:34;;;;;;;8.13;2.10;;;11.50;96.30;;;;;;5077645;28;20094;-69
2021/09/28 07:11:00;;;;;;;6.38;2.13;;;11.60;97.50;;;;;;5075675;28;20064;-69
2021/09/28 07:13:26;;;;;;;6.93;2.38;;;11.70;98.00;;;;;;5076861;28;20048;-69
2021/09/28 07:15:52;;;;;;;6.97;1.70;;;11.70;98.00;;;;;;5077912;28;20059;-69
2021/09/28 07:18:17;;;;;;;7.22;2.45;;;11.80;98.00;;;;;;5077701;28;20060;-69
2021/09/28 07:20:45;;;;;;;8.48;2.15;;;11.90;98.00;;;;;;5077734;28;20317;-69
2021/09/28 07:23:11;;;;;;;4.93;1.88;;;12.20;98.00;;;;;;5077669;28;20036;-70
2021/09/28 07:25:36;;;;;;;5.03;2.22;;;12.30;98.00;;;;;;5076480;28;20444;-71
2021/09/28 07:28:02;;;;;;;10.05;1.83;;;12.40;98.00;;;;;;5077446;28;20031;-69
2021/09/28 07:30:30;;;;;;;4.80;1.92;;;12.50;98.00;;;;;;5077582;28;20028;-69
2021/09/28 07:32:56;;;;;;;4.45;1.77;;;12.60;98.00;;;;;;5060177;28;20037;-69
2021/09/28 07:35:22;;;;;;;4.30;2.20;;;12.80;98.00;;;;;;5058010;28;20083;-69
2021/09/28 07:37:47;;;;;;;5.10;1.90;;;13.10;98.00;;;;;;5077451;28;20086;-69
2021/09/28 07:40:14;;;;;;;6.65;1.85;;;13.50;98.00;;;;;;5077352;28;20044;-69
2021/09/28 07:42:40;;;;;;;7.53;1.70;;;13.90;98.00;;;;;;5075930;28;20028;-70
2021/09/28 07:45:06;;;;;;;5.97;1.60;;;13.90;98.00;;;;;;5077496;28;20321;-69
2021/09/28 07:47:32;;;;;;;5.82;1.67;;;14.20;98.00;;;;;;5077170;28;20618;-70
2021/09/28 07:49:58;;;;;;;6.60;1.45;;;14.50;98.00;;;;;;5077337;28;20066;-69
2021/09/28 07:52:24;;;;;;;6.88;1.50;;;14.60;97.20;;;;;;5077042;28;20094;-69
2021/09/28 07:54:50;;;;;;;5.88;1.45;;;14.60;96.60;;;;;;5077079;28;20032;-69
2021/09/28 07:57:16;;;;;;;3.88;1.50;;;14.60;95.50;;;;;;5075817;28;20021;-69
2021/09/28 07:59:41;;;;;;;6.88;1.42;;;14.60;96.10;;;;;;5075978;28;20022;-69
2021/09/28 08:02:08;;;;;;;6.45;1.48;;;14.80;97.30;;;;;;5076294;28;20333;-69
2021/09/28 08:04:35;;;;;;;4.95;1.45;;;14.90;97.20;;;;;;5076815;28;20114;-69
2021/09/28 08:07:01;;;;;;;8.45;1.83;;;14.60;96.40;;;;;;5076419;28;20058;-69
2021/09/28 08:09:27;;;;;;;7.15;1.75;;;14.50;96.40;;;;;;5076908;28;20089;-69
2021/09/28 08:11:53;;;;;;;5.47;1.65;;;14.60;96.40;;;;;;5075234;28;20084;-69
2021/09/28 08:14:19;;;;;;;7.18;1.50;;;14.60;95.30;;;;;;5076894;28;20096;-69
2021/09/28 08:16:45;;;;;;;6.78;1.92;;;14.60;96.10;;;;;;5063968;28;20041;-69
2021/09/28 08:19:10;;;;;;;7.88;2.17;;;14.30;96.80;;;;;;5056706;28;20539;-69
2021/09/28 08:21:36;;;;;;;6.18;1.52;;;14.10;97.00;;;;;;5056675;28;20017;-70
2021/09/28 08:24:02;;;;;;;4.82;1.42;;;14.40;97.40;;;;;;5063663;28;20107;-70
2021/09/28 08:29:10;;;;;;;5.40;1.33;;;15.20;96.50;;;;;;5074810;28;20032;-70
2021/09/28 08:31:41;;;;;;;6.43;1.40;;;16.60;94.00;;;;;;5068843;28;20421;-70
2021/09/28 08:34:08;;;;;;;6.18;1.30;;;18.70;88.10;;;;;;5056367;28;20398;-70
2021/09/28 08:36:34;;;;;;;6.13;1.45;;;20.80;84.50;;;;;;5065567;28;20032;-70
2021/09/28 08:39:01;;;;;;;3.38;1.05;;;21.30;76.20;;;;;;5075829;28;20107;-70
2021/09/28 08:41:27;;;;;;;8.13;1.67;;;21.40;77.30;;;;;;5073775;28;20050;-70
2021/09/28 08:43:56;;;;;;;5.40;1.00;;;21.80;76.80;;;;;;5075837;28;20054;-70
2021/09/28 08:46:22;;;;;;;3.85;1.10;;;22.10;73.70;;;;;;5076030;28;20440;-70
2021/09/28 08:48:48;;;;;;;3.83;1.00;;;22.80;71.60;;;;;;5075965;28;20020;-70
2021/09/28 08:51:15;;;;;;;7.22;1.50;;;23.00;69.50;;;;;;5075805;28;20367;-70
2021/09/28 08:53:41;;;;;;;4.20;1.13;;;21.90;74.20;;;;;;5075976;28;20024;-70
2021/09/28 08:56:14;;;;;;;12.30;2.28;;;20.80;76.00;;;;;;5072445;28;20067;-70
2021/09/28 08:58:58;;;;;;;6.53;1.50;;;19.70;79.80;;;;;;5074148;28;20056;-70
2021/09/28 09:01:25;;;;;;;5.50;1.40;;;19.10;82.70;;;;;;5076176;28;20078;-70
2021/09/28 09:03:51;;;;;;;6.72;1.70;;;18.70;82.70;;;;;;5075456;28;20024;-70
2021/09/28 09:06:17;;;;;;;7.38;1.90;;;18.10;84.70;;;;;;5075580;28;20402;-69
2021/09/28 09:08:48;;;;;;;5.43;1.65;;;17.40;84.80;;;;;;5075676;28;20024;-69
2021/09/28 09:11:16;;;;;;;5.70;1.75;;;16.60;86.70;;;;;;5074425;28;20032;-69
2021/09/28 09:13:45;;;;;;;5.78;1.80;;;16.10;88.70;;;;;;5074491;28;20027;-70
2021/09/28 09:16:13;;;;;;;5.50;1.42;;;15.70;87.60;;;;;;5055615;28;20078;-69
2021/09/28 09:18:41;;;;;;;5.50;1.63;;;15.30;89.10;;;;;;5059330;28;20032;-69
2021/09/28 09:21:08;;;;;;;4.85;1.52;;;15.20;89.10;;;;;;5075649;28;20013;-69
2021/09/28 09:23:37;;;;;;;7.57;2.17;;;15.10;90.40;;;;;;5075267;28;20036;-69
2021/09/28 09:26:07;;;;;;;6.55;1.70;;;15.90;88.60;;;;;;5065293;28;20453;-69
2021/09/28 09:28:49;;;;;;;8.35;1.80;;;17.00;87.20;;;;;;5055465;28;20047;-69
2021/09/28 09:31:32;;;;;;;6.25;1.80;;;18.10;84.30;;;;;;5060562;28;20108;-69
2021/09/28 09:34:14;;;;;;;8.10;2.00;;;18.60;83.00;;;;;;5074823;28;20356;-69
2021/09/28 09:36:40;;;;;;;5.55;1.83;;;18.50;81.90;;;;;;5074599;28;20064;-69
2021/09/28 09:39:09;;;;;;;6.10;1.90;;;18.20;83.70;;;;;;5074775;28;20021;-69
2021/09/28 09:41:35;;;;;;;7.15;2.42;;;17.80;85.30;;;;;;5074053;28;20024;-69
2021/09/28 09:44:09;;;;;;;7.32;2.40;;;17.10;85.40;;;;;;5075080;28;20070;-69
2021/09/28 09:46:52;;;;;;;6.75;2.25;;;16.30;87.60;;;;;;5075469;28;20020;-69
2021/09/28 09:49:26;;;;;;;6.47;3.00;;;15.60;90.10;;;;;;5074876;28;20035;-70
2021/09/28 09:51:54;;;;;;;5.60;2.22;;;15.30;91.40;;;;;;5075413;28;20024;-69
2021/09/28 09:54:36;;;;;;;12.15;4.13;;;16.30;91.10;;;;;;5074756;28;20462;-69
2021/09/28 09:57:06;;;;;;;5.93;1.90;;;17.50;86.50;;;;;;5054035;28;20025;-69
2021/09/28 09:59:33;;;;;;;5.22;2.00;;;18.30;82.60;;;;;;5055205;28;20028;-70
2021/09/28 10:01:59;;;;;;;7.22;2.55;;;18.10;82.00;;;;;;5070610;28;20029;-69
2021/09/28 10:04:25;;;;;;;5.63;1.80;;;18.20;82.60;;;;;;5074241;28;20028;-69
2021/09/28 10:06:53;;;;;;;5.63;1.83;;;18.90;81.70;;;;;;5075115;28;20031;-69
2021/09/28 10:09:37;;;;;;;5.88;1.70;;;19.40;78.80;;;;;;5075067;28;20087;-69
2021/09/28 10:12:05;;;;;;;4.85;1.73;;;19.50;78.80;;;;;;5072121;28;20056;-69
2021/09/28 10:14:44;;;;;;;11.48;1.80;;;18.70;80.60;;;;;;5074703;28;20092;-69
2021/09/28 10:17:28;;;;;;;5.97;1.80;;;17.70;82.00;;;;;;5073862;28;20322;-69
2021/09/28 10:20:03;;;;;;;;;;;18.30;83.40;;;;;;5073292;28;20029;-70
2021/09/28 10:22:56;;;;;;;6.25;1.30;;;19.40;79.50;;;;;;5073967;28;19905;-70
2021/09/28 10:25:34;;;;;;;4.85;1.60;;;21.20;76.40;;;;;;5073338;28;20028;-70
2021/09/28 10:28:06;;;;;;;4.25;1.33;;;22.20;68.10;;;;;;5075218;28;20028;-70
2021/09/28 10:30:31;;;;;;;5.10;1.25;;;21.60;71.50;;;;;;5074435;28;20036;-70
2021/09/28 10:33:01;;;;;;;4.50;1.17;;;22.10;69.70;;;;;;5075179;28;20032;-70
2021/09/28 10:35:27;;;;;;;3.67;1.10;;;22.30;66.70;;;;;;5074640;28;20025;-69
2021/09/28 10:38:06;;;;;;;4.05;1.23;;;21.60;70.30;;;;;;5074856;28;20028;-70
2021/09/28 10:40:32;;;;;;;5.70;1.30;;;22.10;72.20;;;;;;5073296;28;20032;-68
2021/09/28 10:43:06;;;;;;;2.65;1.10;;;22.00;69.50;;;;;;5074955;28;20101;-68
2021/09/28 10:45:38;;;;;;;3.90;1.15;;;23.00;67.90;;;;;;5072767;28;20032;-69
2021/09/28 10:48:26;;;;;;;3.67;1.00;;;23.50;65.00;;;;;;5075329;28;20041;-68
2021/09/28 10:51:14;;;;;;;4.78;1.40;;;22.60;70.20;;;;;;5078135;28;20029;-69
2021/09/28 10:53:42;;;;;;;5.22;1.60;;;22.30;69.90;;;;;;5078082;28;20032;-69
2021/09/28 10:56:11;;;;;;;6.70;1.60;;;22.50;68.50;;;;;;5075685;28;20036;-69
2021/09/28 10:58:55;;;;;;;8.23;1.60;;;21.90;69.20;;;;;;5078155;28;20029;-69
2021/09/28 11:01:22;;;;;;;;;;;21.40;68.90;;;;;;5059252;28;20029;-69
2021/09/28 11:03:56;;;;;;;5.15;1.40;;;21.70;70.00;;;;;;5070867;28;19912;-69
2021/09/28 11:06:58;;;;;;;3.72;1.02;;;22.40;71.20;;;;;;5078031;28;20465;-69
2021/09/28 11:09:26;;;;;;;6.28;1.58;;;23.60;63.50;;;;;;5077716;28;20310;-69
2021/09/28 11:11:56;;;;;;;7.45;1.60;;;23.20;63.80;;;;;;5076914;28;20318;-69
2021/09/28 11:14:24;;;;;;;5.10;1.73;;;21.40;69.40;;;;;;5069005;28;20031;-68
2021/09/28 11:16:55;;;;;;;4.63;1.80;;;19.70;73.30;;;;;;5057699;28;20116;-68
2021/09/28 11:19:22;;;;;;;7.07;2.10;;;19.00;75.30;;;;;;5074007;28;20024;-69
2021/09/28 11:21:48;;;;;;;6.70;1.90;;;19.00;76.70;;;;;;5077727;28;20448;-70
2021/09/28 11:24:24;;;;;;;4.55;1.73;;;19.40;75.80;;;;;;5058710;28;20029;-70
2021/09/28 11:26:52;;;;;;;6.85;1.90;;;20.00;74.50;;;;;;5056585;28;20321;-69
2021/09/28 11:29:22;;;;;;;5.80;1.90;;;21.10;73.30;;;;;;5076852;28;20032;-69
2021/09/28 11:31:48;;;;;;;6.68;2.22;;;21.60;71.10;;;;;;5077180;28;20086;-68
2021/09/28 11:34:14;;;;;;;8.45;2.38;;;20.50;70.70;;;;;;5063699;28;20082;-68
2021/09/28 11:36:41;;;;;;;6.68;1.90;;;19.80;73.00;;;;;;5057535;28;20419;-69
2021/09/28 11:39:15;;;;;;;7.45;2.15;;;19.60;75.10;;;;;;5073972;28;20377;-69
2021/09/28 11:41:42;;;;;;;7.38;2.47;;;20.20;74.90;;;;;;5075358;28;20044;-69
2021/09/28 11:44:08;;;;;;;6.47;2.20;;;20.60;72.90;;;;;;5077213;28;20085;-69
2021/09/28 11:46:36;;;;;;;6.47;2.00;;;20.50;72.00;;;;;;5076753;28;20103;-69
2021/09/28 11:49:08;;;;;;;4.68;1.75;;;20.20;74.20;;;;;;5077298;28;20020;-69
2021/09/28 11:51:38;;;;;;;7.22;2.33;;;20.20;75.10;;;;;;5076287;28;20072;-69
2021/09/28 11:54:13;;;;;;;5.97;2.17;;;20.10;73.20;;;;;;5065142;28;20033;-68
2021/09/28 11:56:44;;;;;;;6.45;2.80;;;19.60;74.60;;;;;;5071248;28;20024;-69
2021/09/28 11:59:12;;;;;;;5.72;2.08;;;19.50;77.00;;;;;;5058223;28;20021;-69
2021/09/28 12:01:38;;;;;;;6.20;2.28;;;20.10;75.50;;;;;;5058896;28;20032;-69
2021/09/28 12:06:59;;;;;;;5.15;1.70;;;20.30;73.00;;;;;;5076846;28;20107;-69
2021/09/28 12:09:34;;;;;;;5.68;2.00;;;20.40;74.90;;;;;;5076820;28;20028;-68
2021/09/28 12:12:09;;;;;;;4.65;2.00;;;20.80;73.10;;;;;;5075496;28;20406;-69
2021/09/28 12:14:39;;;;;;;4.65;1.58;;;20.80;72.80;;;;;;5076557;28;20033;-69
2021/09/28 12:17:10;;;;;;;9.48;2.75;;;21.00;74.10;;;;;;5076488;28;20305;-68
2021/09/28 12:19:37;;;;;;;6.80;2.45;;;20.90;71.90;;;;;;5076754;28;20032;-68
2021/09/28 12:22:04;;;;;;;5.95;2.30;;;20.60;72.70;;;;;;5076637;28;20028;-69
2021/09/28 12:24:48;;;;;;;7.20;2.47;;;20.30;73.90;;;;;;5076454;28;20036;-69
2021/09/28 12:27:15;;;;;;;4.65;2.42;;;20.50;73.60;;;;;;5060399;28;20159;-69
2021/09/28 12:29:43;;;;;;;8.50;2.80;;;20.10;73.80;;;;;;5056334;28;20044;-69
2021/09/28 12:32:28;;;;;;;6.00;2.60;;;20.20;74.10;;;;;;5056233;28;20017;-69
2021/09/28 12:34:57;;;;;;;5.03;2.20;;;20.20;74.30;;;;;;5074769;28;20036;-68
2021/09/28 12:37:24;;;;;;;5.65;2.25;;;20.20;73.80;;;;;;5075253;28;20063;-69
2021/09/28 12:40:11;;;;;;;9.70;2.70;;;20.20;73.70;;;;;;5075896;28;20048;-68
2021/09/28 12:42:39;;;;;;;7.60;2.72;;;20.30;73.70;;;;;;5073139;28;20024;-69
2021/09/28 12:45:08;;;;;;;4.40;2.15;;;20.40;74.20;;;;;;5075305;28;20032;-69
2021/09/28 12:47:42;;;;;;;6.18;2.42;;;20.50;74.60;;;;;;5076035;28;20028;-68
2021/09/28 12:50:22;;;;;;;7.18;2.40;;;20.70;72.90;;;;;;5075779;28;20060;-68
2021/09/28 12:52:50;;;;;;;6.85;2.70;;;20.50;74.80;;;;;;5072694;28;20025;-69
2021/09/28 12:55:17;;;;;;;6.55;2.42;;;20.80;73.80;;;;;;5075590;28;20012;-69
2021/09/28 12:57:43;;;;;;;6.25;2.47;;;20.60;72.30;;;;;;5074454;28;20335;-68